Amelia City, Florida
Current Conditions -  °F | °C
As of 11:15 AM on Monday 22 Dec 2014 (Local Time) from KFHB Reporting Station
Overcast Overcast  
Wind Chill: 72°   Ceiling: 6500
Heat Index: 72°   Visibility: 10mi
Dew Point: 68°   Wind: 9mph
Humidity: 88%   Direction: 160°SSE
Pressure: 29.98"   Gusts: 16mph
Location:  30.6056°N, 81.5268°W
Report Text: KFHB 221615Z AUTO 16008G14KT 10SM SCT049 OVC065 22/20 A2998 RMK AO1 LTG DSNT W AND NW
Loading
Personal Weather Stations






























Interactive Weather Map New forecast layout! Learn more

10-Day Weather Forecast

Advertisements
Track Severe Weather on mobile